Time;durP1;ratioP1;P1;durP2;ratioP2;P2;SDS_P1;SDS_P2;PMS_P1;PMS_P2;Temp;Humidity;BMP_temperature;BMP_pressure;BME280_temperature;BME280_humidity;BME280_pressure;Samples;Min_cycle;Max_cycle;Signal;HPM_P1;HPM_P2
2023/11/24 00:00:38;;;;;;;10.50;1.60;;;;;;;;;;5094170;28;20020;-28
2023/11/24 00:03:04;;;;;;;7.90;1.57;;;;;;;;;;5094189;28;20437;-29
2023/11/24 00:05:29;;;;;;;11.60;2.00;;;;;;;;;;5094693;28;20250;-28
2023/11/24 00:07:54;;;;;;;11.10;1.73;;;;;;;;;;5094254;28;20767;-28
2023/11/24 00:10:19;;;;;;;17.87;1.93;;;;;;;;;;5094322;28;20028;-28
2023/11/24 00:12:44;;;;;;;10.60;2.23;;;;;;;;;;5094458;28;20270;-28
2023/11/24 00:15:10;;;;;;;15.38;2.10;;;;;;;;;;5094219;28;20680;-28
2023/11/24 00:17:37;;;;;;;13.45;1.88;;;;;;;;;;5093993;28;20380;-28
2023/11/24 00:20:03;;;;;;;12.48;1.98;;;;;;;;;;5094105;28;20043;-28
2023/11/24 00:22:28;;;;;;;13.85;2.13;;;;;;;;;;5093834;28;20351;-28
2023/11/24 00:24:54;;;;;;;14.47;2.33;;;;;;;;;;5093847;28;20356;-28
2023/11/24 00:27:19;;;;;;;12.80;2.03;;;;;;;;;;5093699;28;20298;-28
2023/11/24 00:29:44;;;;;;;18.35;2.30;;;;;;;;;;5093929;28;20016;-28
2023/11/24 00:32:10;;;;;;;16.03;1.77;;;;;;;;;;5093738;28;20474;-29
2023/11/24 00:34:38;;;;;;;12.97;1.93;;;;;;;;;;5093624;28;20262;-28
2023/11/24 00:37:03;;;;;;;10.73;1.73;;;;;;;;;;5093627;28;20250;-28
2023/11/24 00:39:28;;;;;;;15.35;2.35;;;;;;;;;;5093542;28;20024;-28
2023/11/24 00:41:53;;;;;;;17.50;3.03;;;;;;;;;;5093899;28;20022;-28
2023/11/24 00:44:18;;;;;;;14.80;2.00;;;;;;;;;;5093395;28;20254;-28
2023/11/24 00:46:43;;;;;;;9.47;1.73;;;;;;;;;;5093774;28;20325;-28
2023/11/24 00:49:09;;;;;;;15.60;2.60;;;;;;;;;;5094013;28;20255;-28
2023/11/24 00:51:34;;;;;;;20.58;2.10;;;;;;;;;;5093412;28;20250;-28
2023/11/24 00:54:00;;;;;;;12.52;1.67;;;;;;;;;;5093483;28;20027;-30
2023/11/24 00:56:25;;;;;;;12.75;1.88;;;;;;;;;;5093682;28;20020;-28
2023/11/24 00:58:51;;;;;;;17.30;1.88;;;;;;;;;;5093216;28;20020;-28
2023/11/24 01:01:16;;;;;;;14.90;2.10;;;;;;;;;;5093665;28;20027;-28
2023/11/24 01:03:41;;;;;;;13.73;2.17;;;;;;;;;;5093601;28;20360;-28
2023/11/24 01:06:07;;;;;;;11.38;2.10;;;;;;;;;;5093580;28;20052;-28
2023/11/24 01:08:32;;;;;;;13.02;1.60;;;;;;;;;;5093330;28;20027;-28
2023/11/24 01:11:02;;;;;;;9.50;1.80;;;;;;;;;;5093450;28;20054;-28
2023/11/24 01:13:31;;;;;;;10.82;1.70;;;;;;;;;;5093470;28;20254;-29
2023/11/24 01:15:56;;;;;;;11.98;2.10;;;;;;;;;;5093454;28;20101;-28
2023/11/24 01:18:21;;;;;;;17.95;2.25;;;;;;;;;;5093461;28;20470;-28
2023/11/24 01:20:46;;;;;;;17.10;2.53;;;;;;;;;;5093121;28;20056;-28
2023/11/24 01:23:11;;;;;;;12.30;1.90;;;;;;;;;;5093075;28;20281;-28
2023/11/24 01:25:37;;;;;;;18.50;1.98;;;;;;;;;;5093397;28;20262;-28
2023/11/24 01:28:03;;;;;;;13.48;1.90;;;;;;;;;;5093121;28;20013;-28
2023/11/24 01:30:28;;;;;;;11.77;1.80;;;;;;;;;;5093189;28;20024;-28
2023/11/24 01:32:53;;;;;;;20.17;2.43;;;;;;;;;;5093023;28;20035;-28
2023/11/24 01:35:19;;;;;;;13.25;2.20;;;;;;;;;;5093012;28;20331;-29
2023/11/24 01:37:44;;;;;;;12.00;2.10;;;;;;;;;;5093554;28;20210;-28
2023/11/24 01:40:10;;;;;;;14.57;1.60;;;;;;;;;;5093161;28;20278;-29
2023/11/24 01:42:37;;;;;;;16.30;2.15;;;;;;;;;;5092933;28;20023;-29
2023/11/24 01:45:04;;;;;;;9.73;1.70;;;;;;;;;;5093206;28;20028;-29
2023/11/24 01:47:29;;;;;;;8.20;1.40;;;;;;;;;;5093675;28;20026;-28
2023/11/24 01:49:55;;;;;;;7.30;1.17;;;;;;;;;;5093544;28;20099;-29
2023/11/24 01:52:20;;;;;;;6.55;1.33;;;;;;;;;;5094186;28;20262;-29
2023/11/24 01:54:47;;;;;;;10.07;1.50;;;;;;;;;;5078387;28;20048;-29
2023/11/24 01:57:12;;;;;;;10.80;1.20;;;;;;;;;;5096870;28;20016;-29
2023/11/24 01:59:38;;;;;;;10.45;1.40;;;;;;;;;;5095364;28;20577;-29
2023/11/24 02:02:03;;;;;;;9.43;1.25;;;;;;;;;;5096249;28;20016;-28
2023/11/24 02:04:29;;;;;;;9.65;1.42;;;;;;;;;;5096693;28;20070;-28
2023/11/24 02:06:56;;;;;;;8.07;1.60;;;;;;;;;;5096951;28;20028;-30
2023/11/24 02:09:21;;;;;;;5.88;1.10;;;;;;;;;;5096679;28;20024;-28
2023/11/24 02:11:47;;;;;;;13.02;1.20;;;;;;;;;;5096613;28;20374;-29
2023/11/24 02:14:13;;;;;;;4.77;1.07;;;;;;;;;;5096290;28;20024;-29
2023/11/24 02:16:38;;;;;;;8.57;1.13;;;;;;;;;;5096502;28;20265;-28
2023/11/24 02:19:03;;;;;;;4.27;0.70;;;;;;;;;;5096161;28;20375;-29
2023/11/24 02:21:28;;;;;;;12.27;1.67;;;;;;;;;;5096712;28;20333;-29
2023/11/24 02:23:53;;;;;;;7.10;1.23;;;;;;;;;;5096217;28;20736;-29
2023/11/24 02:26:19;;;;;;;9.63;1.23;;;;;;;;;;5096583;28;20259;-29
2023/11/24 02:28:44;;;;;;;4.05;1.08;;;;;;;;;;5095778;28;20020;-29
2023/11/24 02:31:09;;;;;;;8.18;1.40;;;;;;;;;;5095894;28;20081;-29
2023/11/24 02:33:34;;;;;;;9.32;1.50;;;;;;;;;;5096213;28;20040;-29
2023/11/24 02:36:05;;;;;;;8.48;1.33;;;;;;;;;;5096138;28;20070;-28
2023/11/24 02:38:31;;;;;;;8.98;1.42;;;;;;;;;;5096301;28;20447;-29
2023/11/24 02:40:56;;;;;;;7.97;1.30;;;;;;;;;;5095994;28;20026;-29
2023/11/24 02:43:21;;;;;;;5.77;1.43;;;;;;;;;;5095739;28;20459;-28
2023/11/24 02:45:46;;;;;;;9.23;1.80;;;;;;;;;;5095645;28;20337;-29
2023/11/24 02:48:11;;;;;;;10.73;1.50;;;;;;;;;;5095620;28;20305;-29
2023/11/24 02:50:37;;;;;;;13.07;1.50;;;;;;;;;;5095880;28;20253;-29
2023/11/24 02:53:02;;;;;;;10.90;1.55;;;;;;;;;;5095539;28;20012;-29
2023/11/24 02:55:27;;;;;;;8.63;1.37;;;;;;;;;;5095375;28;20406;-29
2023/11/24 02:57:52;;;;;;;11.40;1.53;;;;;;;;;;5095462;28;20301;-29
2023/11/24 03:00:18;;;;;;;10.90;1.70;;;;;;;;;;5095314;28;20702;-29
2023/11/24 03:02:43;;;;;;;15.63;2.13;;;;;;;;;;5095302;28;20262;-29
2023/11/24 03:05:08;;;;;;;12.10;1.88;;;;;;;;;;5095809;28;20008;-29
2023/11/24 03:07:34;;;;;;;14.63;1.60;;;;;;;;;;5095507;28;20028;-29
2023/11/24 03:09:59;;;;;;;9.98;2.03;;;;;;;;;;5095410;28;20717;-29
2023/11/24 03:12:25;;;;;;;17.30;2.40;;;;;;;;;;5095312;28;20106;-29
2023/11/24 03:14:53;;;;;;;18.35;1.65;;;;;;;;;;5095232;28;20066;-29
2023/11/24 03:17:18;;;;;;;9.00;1.65;;;;;;;;;;5076834;28;20390;-29
2023/11/24 03:19:44;;;;;;;7.63;1.20;;;;;;;;;;5094831;28;20107;-29
2023/11/24 03:22:09;;;;;;;8.45;0.90;;;;;;;;;;5095890;28;20297;-29
2023/11/24 03:24:35;;;;;;;4.97;1.10;;;;;;;;;;5095016;28;20012;-29
2023/11/24 03:27:00;;;;;;;7.90;1.20;;;;;;;;;;5076653;28;20048;-29
2023/11/24 03:29:25;;;;;;;7.35;0.98;;;;;;;;;;5094990;28;20078;-29
2023/11/24 03:31:51;;;;;;;6.32;1.02;;;;;;;;;;5094772;28;20016;-29
2023/11/24 03:34:16;;;;;;;6.50;1.40;;;;;;;;;;5095318;28;20020;-29
2023/11/24 03:36:41;;;;;;;9.52;1.67;;;;;;;;;;5094693;28;20016;-29
2023/11/24 03:39:06;;;;;;;10.43;1.40;;;;;;;;;;5095106;28;20023;-29
2023/11/24 03:41:31;;;;;;;6.68;1.20;;;;;;;;;;5094550;28;20341;-29
2023/11/24 03:43:57;;;;;;;9.73;1.30;;;;;;;;;;5095094;28;20026;-28
2023/11/24 03:46:22;;;;;;;10.93;1.30;;;;;;;;;;5094769;28;20624;-29
2023/11/24 03:48:47;;;;;;;13.18;1.70;;;;;;;;;;5094531;28;20355;-29
2023/11/24 03:51:19;;;;;;;10.68;1.33;;;;;;;;;;5094690;28;20024;-28
2023/11/24 03:53:45;;;;;;;13.27;1.50;;;;;;;;;;5094397;28;20111;-30
2023/11/24 03:56:12;;;;;;;10.10;1.27;;;;;;;;;;5094199;28;20082;-29
2023/11/24 03:58:37;;;;;;;8.23;1.55;;;;;;;;;;5094261;28;20020;-29
2023/11/24 04:01:03;;;;;;;8.60;1.50;;;;;;;;;;5094820;28;20095;-29
2023/11/24 04:03:29;;;;;;;6.85;1.25;;;;;;;;;;5094879;28;20595;-29
2023/11/24 04:05:54;;;;;;;10.00;1.20;;;;;;;;;;5094115;28;20091;-29
2023/11/24 04:08:19;;;;;;;11.10;1.23;;;;;;;;;;5094635;28;20242;-29
2023/11/24 04:10:44;;;;;;;11.53;1.60;;;;;;;;;;5094559;28;20266;-29
2023/11/24 04:13:10;;;;;;;11.30;1.53;;;;;;;;;;5094019;28;20262;-29
2023/11/24 04:15:35;;;;;;;12.38;1.50;;;;;;;;;;5093438;28;20262;-29
2023/11/24 04:18:00;;;;;;;8.13;1.30;;;;;;;;;;5093911;28;20077;-28
2023/11/24 04:20:25;;;;;;;6.13;0.98;;;;;;;;;;5094105;28;20278;-29
2023/11/24 04:22:51;;;;;;;8.80;1.55;;;;;;;;;;5094120;28;20024;-28
2023/11/24 04:25:16;;;;;;;7.32;1.67;;;;;;;;;;5094077;28;20038;-29
2023/11/24 04:27:41;;;;;;;9.77;1.65;;;;;;;;;;5094403;28;20459;-29
2023/11/24 04:30:07;;;;;;;11.20;1.40;;;;;;;;;;5093723;28;20073;-29
2023/11/24 04:32:32;;;;;;;8.27;1.50;;;;;;;;;;5093755;28;20398;-28
2023/11/24 04:34:57;;;;;;;11.07;1.73;;;;;;;;;;5094193;28;20393;-29
2023/11/24 04:37:23;;;;;;;7.97;1.57;;;;;;;;;;5093666;28;20463;-29
2023/11/24 04:39:48;;;;;;;11.55;2.28;;;;;;;;;;5093685;28;20289;-29
2023/11/24 04:42:15;;;;;;;7.75;1.45;;;;;;;;;;5094139;28;20052;-28
2023/11/24 04:44:40;;;;;;;8.65;1.00;;;;;;;;;;5093505;28;20031;-29
2023/11/24 04:47:05;;;;;;;10.50;1.63;;;;;;;;;;5094065;28;20027;-29
2023/11/24 04:49:30;;;;;;;9.50;1.80;;;;;;;;;;5093787;28;20778;-29
2023/11/24 04:51:56;;;;;;;14.53;1.40;;;;;;;;;;5094026;28;20028;-29
2023/11/24 04:54:21;;;;;;;9.27;1.30;;;;;;;;;;5093474;28;20285;-29
2023/11/24 04:56:47;;;;;;;18.50;1.87;;;;;;;;;;5093705;28;20429;-29
2023/11/24 04:59:12;;;;;;;15.15;1.75;;;;;;;;;;5093564;28;20289;-29
2023/11/24 05:01:37;;;;;;;10.73;2.00;;;;;;;;;;5093413;28;20012;-29
2023/11/24 05:04:02;;;;;;;15.03;1.83;;;;;;;;;;5093396;28;20012;-29
2023/11/24 05:06:28;;;;;;;12.88;1.60;;;;;;;;;;5093817;28;20259;-29
2023/11/24 05:08:53;;;;;;;12.00;1.70;;;;;;;;;;5093543;28;20474;-29
2023/11/24 05:11:18;;;;;;;17.93;2.07;;;;;;;;;;5093251;28;20463;-29
2023/11/24 05:13:44;;;;;;;7.80;1.38;;;;;;;;;;5093864;28;20300;-29
2023/11/24 05:16:09;;;;;;;11.57;1.90;;;;;;;;;;5093529;28;20479;-30
2023/11/24 05:18:34;;;;;;;9.30;1.38;;;;;;;;;;5093460;28;20020;-29
2023/11/24 05:21:00;;;;;;;13.63;1.57;;;;;;;;;;5093203;28;20028;-29
2023/11/24 05:23:25;;;;;;;9.27;1.60;;;;;;;;;;5093176;28;20246;-29
2023/11/24 05:25:51;;;;;;;17.33;2.13;;;;;;;;;;5093999;28;20250;-29
2023/11/24 05:28:16;;;;;;;6.50;1.35;;;;;;;;;;5095235;28;20325;-29
2023/11/24 05:30:41;;;;;;;8.82;1.20;;;;;;;;;;5097393;28;20103;-29
2023/11/24 05:33:06;;;;;;;11.73;1.47;;;;;;;;;;5097013;28;20031;-29
2023/11/24 05:35:31;;;;;;;12.70;2.17;;;;;;;;;;5097616;28;20242;-29
2023/11/24 05:37:59;;;;;;;13.07;1.63;;;;;;;;;;5097222;28;20016;-29
2023/11/24 05:40:24;;;;;;;8.18;1.23;;;;;;;;;;5097160;28;20373;-29
2023/11/24 05:42:49;;;;;;;6.63;1.00;;;;;;;;;;5096964;28;20486;-29
2023/11/24 05:45:14;;;;;;;9.20;1.30;;;;;;;;;;5097398;28;20021;-29
2023/11/24 05:47:40;;;;;;;4.95;1.10;;;;;;;;;;5097122;28;20585;-30
2023/11/24 05:50:05;;;;;;;10.90;1.20;;;;;;;;;;5096999;28;20020;-29
2023/11/24 05:52:34;;;;;;;6.22;1.30;;;;;;;;;;5097255;28;20031;-30
2023/11/24 05:55:02;;;;;;;9.15;1.58;;;;;;;;;;5096580;28;20079;-30
2023/11/24 05:57:27;;;;;;;8.70;1.10;;;;;;;;;;5097367;28;20363;-29
2023/11/24 05:59:53;;;;;;;12.95;1.80;;;;;;;;;;5096463;28;20020;-29
2023/11/24 06:02:18;;;;;;;12.35;1.25;;;;;;;;;;5096492;28;20024;-30
2023/11/24 06:04:43;;;;;;;15.10;1.60;;;;;;;;;;5097058;28;20015;-29
2023/11/24 06:07:09;;;;;;;7.23;1.23;;;;;;;;;;5096556;28;20290;-29
2023/11/24 06:09:34;;;;;;;9.63;1.50;;;;;;;;;;5097415;28;20277;-29
2023/11/24 06:11:59;;;;;;;12.27;1.70;;;;;;;;;;5096442;28;20027;-29
2023/11/24 06:14:24;;;;;;;9.83;1.80;;;;;;;;;;5096260;28;20479;-29
2023/11/24 06:16:50;;;;;;;10.40;1.20;;;;;;;;;;5096758;28;20254;-29
2023/11/24 06:19:15;;;;;;;8.60;0.97;;;;;;;;;;5096158;28;20791;-29
2023/11/24 06:21:40;;;;;;;8.45;1.42;;;;;;;;;;5096197;28;20254;-29
2023/11/24 06:24:05;;;;;;;10.83;1.37;;;;;;;;;;5096300;28;20016;-30
2023/11/24 06:26:33;;;;;;;8.38;1.60;;;;;;;;;;5096037;28;20250;-29
2023/11/24 06:28:58;;;;;;;8.77;1.85;;;;;;;;;;5096301;28;20466;-29
2023/11/24 06:31:23;;;;;;;11.57;1.33;;;;;;;;;;5095924;28;20013;-29
2023/11/24 06:33:49;;;;;;;11.73;1.80;;;;;;;;;;5096513;28;20016;-29
2023/11/24 06:36:14;;;;;;;13.27;2.13;;;;;;;;;;5095774;28;20356;-30
2023/11/24 06:38:40;;;;;;;10.53;1.90;;;;;;;;;;5095729;28;20020;-29
2023/11/24 06:41:06;;;;;;;8.18;1.38;;;;;;;;;;5095900;28;20285;-29
2023/11/24 06:43:31;;;;;;;13.27;1.35;;;;;;;;;;5096326;28;20020;-30
2023/11/24 06:45:56;;;;;;;13.40;1.70;;;;;;;;;;5095891;28;20016;-29
2023/11/24 06:48:21;;;;;;;6.57;1.60;;;;;;;;;;5095640;28;20737;-30
2023/11/24 06:50:46;;;;;;;5.77;1.10;;;;;;;;;;5096199;28;20351;-29
2023/11/24 06:53:13;;;;;;;10.20;1.80;;;;;;;;;;5095542;28;20276;-29
2023/11/24 06:55:38;;;;;;;7.47;1.27;;;;;;;;;;5095222;28;20056;-29
2023/11/24 06:58:06;;;;;;;10.57;1.45;;;;;;;;;;5095649;28;20475;-29
2023/11/24 07:00:31;;;;;;;7.15;1.23;;;;;;;;;;5095621;28;20043;-29
2023/11/24 07:02:57;;;;;;;8.13;1.73;;;;;;;;;;5095636;28;20058;-29
2023/11/24 07:05:23;;;;;;;7.57;1.42;;;;;;;;;;5095601;28;20246;-29
2023/11/24 07:07:48;;;;;;;10.88;1.30;;;;;;;;;;5095535;28;20108;-30
2023/11/24 07:10:13;;;;;;;12.27;1.73;;;;;;;;;;5095234;28;20019;-30
2023/11/24 07:12:39;;;;;;;13.65;1.90;;;;;;;;;;5095119;28;20071;-29
2023/11/24 07:15:05;;;;;;;8.20;1.40;;;;;;;;;;5095320;28;20051;-29
2023/11/24 07:17:33;;;;;;;9.00;1.40;;;;;;;;;;5094967;28;20183;-29
2023/11/24 07:19:58;;;;;;;5.70;1.15;;;;;;;;;;5094905;28;20055;-30
2023/11/24 07:22:24;;;;;;;9.03;1.50;;;;;;;;;;5094971;28;20012;-30
2023/11/24 07:24:50;;;;;;;11.15;1.48;;;;;;;;;;5095216;28;20246;-30
2023/11/24 07:27:17;;;;;;;3.88;0.90;;;;;;;;;;5094726;28;20016;-29
2023/11/24 07:29:42;;;;;;;6.25;1.17;;;;;;;;;;5094909;28;20416;-29
2023/11/24 07:32:10;;;;;;;9.80;1.40;;;;;;;;;;5094362;28;20095;-29
2023/11/24 07:34:35;;;;;;;15.23;1.92;;;;;;;;;;5094953;28;20339;-29
2023/11/24 07:37:00;;;;;;;12.87;1.67;;;;;;;;;;5094612;28;20402;-29
2023/11/24 07:39:27;;;;;;;9.27;2.13;;;;;;;;;;5094433;28;20285;-29
2023/11/24 07:41:53;;;;;;;8.55;1.50;;;;;;;;;;5094188;28;20394;-29
2023/11/24 07:44:18;;;;;;;6.47;1.40;;;;;;;;;;5095119;28;20019;-30
2023/11/24 07:46:43;;;;;;;8.87;1.43;;;;;;;;;;5094508;28;20647;-29
2023/11/24 07:49:08;;;;;;;9.93;1.20;;;;;;;;;;5094426;28;20341;-29
2023/11/24 07:51:33;;;;;;;7.70;1.23;;;;;;;;;;5093499;28;20262;-29
2023/11/24 07:53:58;;;;;;;4.70;0.93;;;;;;;;;;5094823;28;20277;-29
2023/11/24 07:56:24;;;;;;;2.90;0.70;;;;;;;;;;5094194;28;20048;-29
2023/11/24 07:58:49;;;;;;;4.18;0.77;;;;;;;;;;5094031;28;20253;-29
2023/11/24 08:01:14;;;;;;;2.97;0.70;;;;;;;;;;5094026;28;20065;-29
2023/11/24 08:03:39;;;;;;;3.75;0.80;;;;;;;;;;5093961;28;20254;-29
2023/11/24 08:06:07;;;;;;;4.37;0.60;;;;;;;;;;5094624;28;20038;-29
2023/11/24 08:08:33;;;;;;;4.32;0.82;;;;;;;;;;5094058;28;20359;-29
2023/11/24 08:10:58;;;;;;;3.80;0.52;;;;;;;;;;5094162;28;20461;-30
2023/11/24 08:13:23;;;;;;;7.80;0.90;;;;;;;;;;5094493;28;20020;-29
2023/11/24 08:15:48;;;;;;;2.63;0.60;;;;;;;;;;5093880;28;20047;-29
2023/11/24 08:18:14;;;;;;;2.67;0.60;;;;;;;;;;5094472;28;20341;-30
2023/11/24 08:20:40;;;;;;;4.40;0.90;;;;;;;;;;5093827;28;20649;-29
2023/11/24 08:23:05;;;;;;;6.60;0.47;;;;;;;;;;5094047;28;20282;-29
2023/11/24 08:25:30;;;;;;;6.97;0.85;;;;;;;;;;5094346;28;20015;-29
2023/11/24 08:27:56;;;;;;;7.17;0.87;;;;;;;;;;5093939;28;20012;-30
2023/11/24 08:30:21;;;;;;;3.00;0.65;;;;;;;;;;5093917;28;20652;-29
2023/11/24 08:32:48;;;;;;;4.60;0.90;;;;;;;;;;5093671;28;20016;-29
2023/11/24 08:35:14;;;;;;;4.82;0.73;;;;;;;;;;5094319;28;20258;-29
2023/11/24 08:37:40;;;;;;;3.33;0.80;;;;;;;;;;5093939;28;20020;-29
2023/11/24 08:40:06;;;;;;;10.95;1.17;;;;;;;;;;5093760;28;20020;-30
2023/11/24 08:42:31;;;;;;;3.65;0.57;;;;;;;;;;5093801;28;20043;-29
2023/11/24 08:44:57;;;;;;;4.88;0.82;;;;;;;;;;5094067;28;20008;-29
2023/11/24 08:47:25;;;;;;;2.05;0.50;;;;;;;;;;5093661;28;20048;-30
2023/11/24 08:49:50;;;;;;;4.88;1.00;;;;;;;;;;5093380;28;20032;-30
2023/11/24 08:52:16;;;;;;;6.40;1.15;;;;;;;;;;5093699;28;20097;-29
2023/11/24 08:54:41;;;;;;;5.45;0.75;;;;;;;;;;5093501;28;20051;-30
2023/11/24 08:57:11;;;;;;;6.57;0.80;;;;;;;;;;5093676;28;20410;-30
2023/11/24 08:59:36;;;;;;;2.30;0.75;;;;;;;;;;5093240;28;20274;-30
2023/11/24 09:02:04;;;;;;;8.43;0.88;;;;;;;;;;5096714;28;20344;-29
2023/11/24 09:04:30;;;;;;;3.40;0.63;;;;;;;;;;5100266;28;20022;-29
2023/11/24 09:06:56;;;;;;;9.27;1.35;;;;;;;;;;5100422;28;20394;-29
2023/11/24 09:09:22;;;;;;;5.15;0.88;;;;;;;;;;5099862;28;20099;-29
2023/11/24 09:11:47;;;;;;;9.00;1.10;;;;;;;;;;5100228;28;20099;-29
2023/11/24 09:14:13;;;;;;;9.73;1.10;;;;;;;;;;5099852;28;20655;-29
2023/11/24 09:16:38;;;;;;;6.30;1.00;;;;;;;;;;5100644;28;20020;-30
2023/11/24 09:19:03;;;;;;;9.35;1.15;;;;;;;;;;5099862;28;20278;-29
2023/11/24 09:21:33;;;;;;;6.72;1.27;;;;;;;;;;5100246;28;20459;-30
2023/11/24 09:23:59;;;;;;;13.98;1.58;;;;;;;;;;5099928;28;20012;-29
2023/11/24 09:26:24;;;;;;;10.63;1.50;;;;;;;;;;5099786;28;20032;-30
2023/11/24 09:28:50;;;;;;;10.85;2.15;;;;;;;;;;5099616;28;20028;-29
2023/11/24 09:31:16;;;;;;;10.48;1.50;;;;;;;;;;5099274;28;20016;-29
2023/11/24 09:33:41;;;;;;;8.65;1.60;;;;;;;;;;5099498;28;20046;-30
2023/11/24 09:36:07;;;;;;;9.23;1.60;;;;;;;;;;5099676;28;20027;-29
2023/11/24 09:38:33;;;;;;;9.13;1.33;;;;;;;;;;5099422;28;20016;-29
2023/11/24 09:41:01;;;;;;;11.77;1.50;;;;;;;;;;5099698;28;20107;-29
2023/11/24 09:43:26;;;;;;;10.43;1.90;;;;;;;;;;5099709;28;20016;-29
2023/11/24 09:45:51;;;;;;;7.88;1.80;;;;;;;;;;5099522;28;20107;-29
2023/11/24 09:48:16;;;;;;;10.10;1.67;;;;;;;;;;5099247;28;20008;-30
2023/11/24 09:50:43;;;;;;;13.00;1.80;;;;;;;;;;5099621;28;20438;-29
2023/11/24 09:53:12;;;;;;;10.73;2.08;;;;;;;;;;5099586;28;20058;-29
2023/11/24 09:55:40;;;;;;;11.77;2.10;;;;;;;;;;5099999;28;20482;-31
2023/11/24 09:58:06;;;;;;;16.27;2.53;;;;;;;;;;5099592;28;20016;-30
2023/11/24 10:00:31;;;;;;;13.25;2.40;;;;;;;;;;5099993;28;20138;-30
2023/11/24 10:02:58;;;;;;;17.20;2.47;;;;;;;;;;5099451;28;20016;-30
2023/11/24 10:05:26;;;;;;;14.40;2.85;;;;;;;;;;5099419;28;20273;-30
2023/11/24 10:07:51;;;;;;;14.90;2.60;;;;;;;;;;5099722;28;20020;-29
2023/11/24 10:10:24;;;;;;;16.33;2.43;;;;;;;;;;5100079;28;20030;-30
2023/11/24 10:12:52;;;;;;;11.45;2.20;;;;;;;;;;5098528;28;20024;-30
2023/11/24 10:15:17;;;;;;;17.90;2.47;;;;;;;;;;5096385;28;20024;-29
2023/11/24 10:17:45;;;;;;;12.05;2.30;;;;;;;;;;5096371;28;20020;-29
2023/11/24 10:20:11;;;;;;;10.93;2.00;;;;;;;;;;5095941;28;20071;-30
2023/11/24 10:22:36;;;;;;;14.52;2.10;;;;;;;;;;5095744;28;20074;-30
2023/11/24 10:25:05;;;;;;;12.35;2.10;;;;;;;;;;5096504;28;20036;-29
2023/11/24 10:27:32;;;;;;;11.38;1.80;;;;;;;;;;5095872;28;20016;-29
2023/11/24 10:29:57;;;;;;;14.18;2.00;;;;;;;;;;5096085;28;20459;-29
2023/11/24 10:32:22;;;;;;;17.27;2.30;;;;;;;;;;5096289;28;20077;-30
2023/11/24 10:34:47;;;;;;;11.67;2.07;;;;;;;;;;5095928;28;20087;-30
2023/11/24 10:37:20;;;;;;;12.73;1.93;;;;;;;;;;5095701;28;20269;-29
2023/11/24 10:39:46;;;;;;;12.75;2.35;;;;;;;;;;5095863;28;20289;-29
2023/11/24 10:42:15;;;;;;;15.48;2.22;;;;;;;;;;5095959;28;20024;-29
2023/11/24 10:44:41;;;;;;;10.52;1.88;;;;;;;;;;5095856;28;20020;-29
2023/11/24 10:47:08;;;;;;;12.60;2.42;;;;;;;;;;5095590;28;20024;-29
2023/11/24 10:49:58;;;;;;;12.18;2.05;;;;;;;;;;5095832;28;20062;-29
2023/11/24 10:52:27;;;;;;;14.68;2.30;;;;;;;;;;5095571;28;20038;-30
2023/11/24 10:55:13;;;;;;;17.23;2.97;;;;;;;;;;5095477;28;20054;-29
2023/11/24 10:57:39;;;;;;;16.98;2.33;;;;;;;;;;5095244;28;20117;-30
2023/11/24 11:00:05;;;;;;;16.40;2.08;;;;;;;;;;5095579;28;20120;-29
2023/11/24 11:02:35;;;;;;;16.88;2.40;;;;;;;;;;5095625;28;20390;-29
2023/11/24 11:05:07;;;;;;;12.98;2.10;;;;;;;;;;5095301;28;20020;-29
2023/11/24 11:07:39;;;;;;;13.07;2.30;;;;;;;;;;5094784;28;20059;-29
2023/11/24 11:10:12;;;;;;;12.40;2.33;;;;;;;;;;5095284;28;20266;-29
2023/11/24 11:12:39;;;;;;;15.52;2.53;;;;;;;;;;5095284;28;20016;-29
2023/11/24 11:15:06;;;;;;;16.63;2.60;;;;;;;;;;5095640;28;20020;-29
2023/11/24 11:17:31;;;;;;;20.13;2.90;;;;;;;;;;5095229;28;20016;-29
2023/11/24 11:20:06;;;;;;;14.70;2.53;;;;;;;;;;5094859;28;20017;-29
2023/11/24 11:22:36;;;;;;;12.07;2.47;;;;;;;;;;5094942;28;20243;-30
2023/11/24 11:25:17;;;;;;;13.93;2.17;;;;;;;;;;5094013;28;20058;-29
2023/11/24 11:27:44;;;;;;;17.23;2.60;;;;;;;;;;5095083;28;20028;-29
2023/11/24 11:30:21;;;;;;;14.93;2.28;;;;;;;;;;5094552;28;20475;-29
2023/11/24 11:33:00;;;;;;;8.05;1.55;;;;;;;;;;5094948;28;20493;-29
2023/11/24 11:35:28;;;;;;;13.77;2.30;;;;;;;;;;5094527;28;20020;-29
2023/11/24 11:37:58;;;;;;;9.40;1.42;;;;;;;;;;5094807;28;20070;-29
2023/11/24 11:40:26;;;;;;;10.27;1.60;;;;;;;;;;5094346;28;20023;-29
2023/11/24 11:42:53;;;;;;;13.63;1.77;;;;;;;;;;5094352;28;20030;-30
2023/11/24 11:45:20;;;;;;;9.82;1.88;;;;;;;;;;5093322;28;20016;-29
2023/11/24 11:47:50;;;;;;;19.52;2.05;;;;;;;;;;5094557;28;20371;-29
2023/11/24 11:50:20;;;;;;;16.95;2.40;;;;;;;;;;5094425;28;20091;-29
2023/11/24 11:52:46;;;;;;;11.90;1.90;;;;;;;;;;5094694;28;20050;-29
2023/11/24 11:55:11;;;;;;;16.85;2.53;;;;;;;;;;5093797;28;20425;-32
2023/11/24 11:57:36;;;;;;;11.93;2.55;;;;;;;;;;5094475;28;20020;-29
2023/11/24 12:00:06;;;;;;;19.40;3.13;;;;;;;;;;5093676;28;20040;-37
2023/11/24 12:02:32;;;;;;;19.90;2.65;;;;;;;;;;5093924;28;20012;-29
2023/11/24 12:04:57;;;;;;;16.60;2.80;;;;;;;;;;5094077;28;20030;-29
2023/11/24 12:07:24;;;;;;;18.30;3.13;;;;;;;;;;5094346;28;20344;-29
2023/11/24 12:09:49;;;;;;;21.38;3.00;;;;;;;;;;5093877;28;20016;-30
2023/11/24 12:12:14;;;;;;;19.85;2.40;;;;;;;;;;5093781;28;20020;-29
2023/11/24 12:14:41;;;;;;;19.80;2.67;;;;;;;;;;5093845;28;20115;-29
2023/11/24 12:17:07;;;;;;;19.13;2.60;;;;;;;;;;5094100;28;20016;-29
2023/11/24 12:19:33;;;;;;;17.27;2.78;;;;;;;;;;5093573;28;20031;-29
2023/11/24 12:21:59;;;;;;;20.92;2.83;;;;;;;;;;5093751;28;20027;-29
2023/11/24 12:24:26;;;;;;;24.88;3.40;;;;;;;;;;5093741;28;20490;-30
2023/11/24 12:26:52;;;;;;;18.38;2.67;;;;;;;;;;5094015;28;20019;-29
2023/11/24 12:29:18;;;;;;;14.68;2.78;;;;;;;;;;5094093;28;20020;-29
2023/11/24 12:31:43;;;;;;;17.88;2.40;;;;;;;;;;5093958;28;20123;-29
2023/11/24 12:34:20;;;;;;;15.02;2.10;;;;;;;;;;5094162;28;20031;-30
2023/11/24 12:36:45;;;;;;;13.38;2.20;;;;;;;;;;5093484;28;20028;-29
2023/11/24 12:39:13;;;;;;;15.23;2.35;;;;;;;;;;5093450;28;20024;-30
2023/11/24 12:41:42;;;;;;;13.38;2.08;;;;;;;;;;5093871;28;20507;-29
2023/11/24 12:44:08;;;;;;;10.73;2.03;;;;;;;;;;5093841;28;20024;-29
2023/11/24 12:46:34;;;;;;;16.83;3.08;;;;;;;;;;5093748;28;20020;-29
2023/11/24 12:49:04;;;;;;;14.10;1.60;;;;;;;;;;5093432;28;20461;-29
2023/11/24 12:51:33;;;;;;;11.32;1.80;;;;;;;;;;5093682;28;20258;-29
2023/11/24 12:54:00;;;;;;;7.72;2.08;;;;;;;;;;5093445;28;20030;-30
2023/11/24 12:56:27;;;;;;;10.35;1.15;;;;;;;;;;5093236;28;20115;-29
2023/11/24 12:58:52;;;;;;;10.52;1.30;;;;;;;;;;5093427;28;20471;-29
2023/11/24 13:01:18;;;;;;;5.67;1.10;;;;;;;;;;5093291;28;20055;-29
2023/11/24 13:03:44;;;;;;;13.00;1.90;;;;;;;;;;5093606;28;20655;-29
2023/11/24 13:06:10;;;;;;;10.55;1.20;;;;;;;;;;5093809;28;20414;-29
2023/11/24 13:08:37;;;;;;;7.20;1.42;;;;;;;;;;5093246;28;20044;-29
2023/11/24 13:11:02;;;;;;;6.63;1.48;;;;;;;;;;5093469;28;20028;-29
2023/11/24 13:13:28;;;;;;;12.52;1.80;;;;;;;;;;5094130;28;20031;-29
2023/11/24 13:15:53;;;;;;;14.13;1.80;;;;;;;;;;5091687;28;20499;-29
2023/11/24 13:18:18;;;;;;;7.37;1.73;;;;;;;;;;5093104;28;20281;-29
2023/11/24 13:20:44;;;;;;;11.50;2.00;;;;;;;;;;5093215;28;20712;-30
2023/11/24 13:23:09;;;;;;;12.75;2.05;;;;;;;;;;5074973;28;20167;-29
2023/11/24 13:25:35;;;;;;;21.27;2.55;;;;;;;;;;5093297;28;20028;-29
2023/11/24 13:28:01;;;;;;;13.50;2.03;;;;;;;;;;5092978;28;20015;-29
2023/11/24 13:30:26;;;;;;;11.52;1.70;;;;;;;;;;5093441;28;20070;-30
2023/11/24 13:32:52;;;;;;;11.60;1.42;;;;;;;;;;5093211;28;20031;-29
2023/11/24 13:35:19;;;;;;;9.27;1.70;;;;;;;;;;5092757;28;20475;-29
2023/11/24 13:37:47;;;;;;;7.32;1.60;;;;;;;;;;5092661;28;20270;-29
2023/11/24 13:40:13;;;;;;;7.55;1.05;;;;;;;;;;5092608;28;20022;-29
2023/11/24 13:42:38;;;;;;;3.92;1.00;;;;;;;;;;5092244;28;20349;-29
2023/11/24 13:45:04;;;;;;;8.85;1.15;;;;;;;;;;5092342;28;20024;-29
2023/11/24 13:47:29;;;;;;;10.93;1.20;;;;;;;;;;5074560;28;20032;-29
2023/11/24 13:49:54;;;;;;;5.43;1.43;;;;;;;;;;5095504;28;20463;-28
2023/11/24 13:52:19;;;;;;;8.57;1.20;;;;;;;;;;5097215;28;20261;-28
2023/11/24 13:54:44;;;;;;;7.05;1.20;;;;;;;;;;5096400;28;20633;-28
2023/11/24 13:57:11;;;;;;;7.22;1.27;;;;;;;;;;5096654;28;20016;-28
2023/11/24 13:59:36;;;;;;;9.63;1.25;;;;;;;;;;5096723;28;20103;-29
2023/11/24 14:02:03;;;;;;;8.52;1.15;;;;;;;;;;5096942;28;20035;-29
2023/11/24 14:04:32;;;;;;;7.65;1.70;;;;;;;;;;5096604;28;20402;-29
2023/11/24 14:06:57;;;;;;;16.58;1.73;;;;;;;;;;5096695;28;20059;-29
2023/11/24 14:09:31;;;;;;;11.75;1.83;;;;;;;;;;5078061;28;20393;-29
2023/11/24 14:11:56;;;;;;;12.50;1.77;;;;;;;;;;5096477;28;20024;-29
2023/11/24 14:14:22;;;;;;;17.55;2.13;;;;;;;;;;5096138;28;20030;-29
2023/11/24 14:16:47;;;;;;;14.35;2.65;;;;;;;;;;5096478;28;20095;-28
2023/11/24 14:19:13;;;;;;;15.38;2.08;;;;;;;;;;5096210;28;20012;-28
2023/11/24 14:21:39;;;;;;;15.38;1.90;;;;;;;;;;5096251;28;20079;-29
2023/11/24 14:24:06;;;;;;;15.15;2.00;;;;;;;;;;5096126;28;20455;-28
2023/11/24 14:26:33;;;;;;;13.07;2.15;;;;;;;;;;5096247;28;20027;-28
2023/11/24 14:28:58;;;;;;;16.63;2.40;;;;;;;;;;5096170;28;20016;-28